This is the latest recevied weather packets stored in our database for station/object ESUT. If no packets are shown the sender has not sent any weather packets the latest 10 day(s).
| Time | Temp. | Humidity | Pressure | Rain* | Wind** | Luminosity | Snow |
|---|---|---|---|---|---|---|---|
| 1777773787 | -1.11° C | 68% | 1006 hPa | - | - | - | - |
| 1777771988 | -1.11° C | 74% | 1006 hPa | - | - | - | - |
| 1777770189 | -1.11° C | 74% | 1006 hPa | - | - | - | - |
| 1777768389 | -1.11° C | 80% | 1005 hPa | - | - | - | - |
| 1777766586 | 0° C | 80% | 1005 hPa | - | - | - | - |
| 1777764790 | 0° C | 86% | 1005 hPa | - | - | - | - |
| 1777762987 | -1.11° C | 92% | 1005 hPa | - | - | - | - |
| 1777761187 | 0° C | 86% | 1005 hPa | - | - | - | - |
| 1777759387 | 0° C | 86% | 1005 hPa | - | - | - | - |
| 1777757588 | 0° C | 80% | 1005 hPa | - | - | - | - |
| 1777755786 | 0° C | 80% | 1005 hPa | - | - | - | - |
| 1777753986 | 0° C | 74% | 1005 hPa | - | - | - | - |
| 1777752187 | 0° C | 80% | 1005 hPa | - | - | - | - |
| 1777750389 | 0° C | 86% | 1005 hPa | - | - | - | - |
| 1777748587 | 0° C | 86% | 1005 hPa | - | - | - | - |
| 1777746786 | 0.56° C | 74% | 1005 hPa | - | - | - | - |
| 1777744988 | 0.56° C | 74% | 1005 hPa | - | - | - | - |
| 1777743189 | 1.67° C | 69% | 1005 hPa | - | - | - | - |
| 1777741388 | 0.56° C | 80% | 1005 hPa | - | - | - | - |
| 1777739588 | 0.56° C | 80% | 1005 hPa | - | - | - | - |
| 1777737789 | 1.67° C | 69% | 1005 hPa | - | - | - | - |
| 1777735988 | 1.67° C | 69% | 1005 hPa | - | - | - | - |
| 1777734189 | 2.78° C | 64% | 1005 hPa | - | - | - | - |
| 1777732388 | 3.89° C | 60% | 1005 hPa | - | - | - | - |
| 1777730588 | 5° C | 60% | 1005 hPa | - | - | - | - |
* Rain since midnight (hover to see other rain measurements)
** Current wind speed in m/s (hover to see current wind gust speed)